createdAt,value
2018-06-23T00:01:34.820Z,10.50
2018-06-23T00:04:03.703Z,10.40
2018-06-23T00:06:32.393Z,10.40
2018-06-23T00:09:01.260Z,10.40
2018-06-23T00:11:29.879Z,10.40
2018-06-23T00:13:58.544Z,10.40
2018-06-23T00:18:56.285Z,10.20
2018-06-23T00:21:24.896Z,10.10
2018-06-23T00:23:53.490Z,10.00
2018-06-23T00:26:27.265Z,9.90
2018-06-23T00:28:56.348Z,9.90
2018-06-23T00:31:25.110Z,9.80
2018-06-23T00:33:53.720Z,9.70
2018-06-23T00:36:22.561Z,9.70
2018-06-23T00:38:51.181Z,9.80
2018-06-23T00:41:19.805Z,9.90
2018-06-23T00:43:48.676Z,10.10
2018-06-23T00:46:17.531Z,10.20
2018-06-23T00:48:47.399Z,10.30
2018-06-23T00:51:16.059Z,10.40
2018-06-23T00:53:45.291Z,10.50
2018-06-23T00:56:14.138Z,10.50
2018-06-23T00:58:54.194Z,10.60
2018-06-23T01:01:22.813Z,10.70
2018-06-23T01:03:51.764Z,10.70
2018-06-23T01:06:20.633Z,10.70
2018-06-23T01:08:49.240Z,10.70
2018-06-23T01:11:17.872Z,10.80
2018-06-23T01:13:46.506Z,10.80
2018-06-23T01:16:15.140Z,10.80
2018-06-23T01:18:43.755Z,10.90
2018-06-23T01:21:12.360Z,10.90
2018-06-23T01:23:41.267Z,10.90
2018-06-23T01:26:09.877Z,11.00
2018-06-23T01:28:38.468Z,10.90
2018-06-23T01:31:07.132Z,10.90
2018-06-23T01:33:35.988Z,10.90
2018-06-23T01:36:04.901Z,10.90
2018-06-23T01:38:33.979Z,10.90
2018-06-23T01:41:02.560Z,10.90
2018-06-23T01:43:31.185Z,10.90
2018-06-23T01:46:00.033Z,10.90
2018-06-23T01:48:28.949Z,10.90
2018-06-23T01:50:57.859Z,10.90
2018-06-23T01:53:26.725Z,10.90
2018-06-23T01:55:55.330Z,11.00
2018-06-23T01:58:23.932Z,11.00
2018-06-23T02:00:52.536Z,11.00
2018-06-23T02:03:21.367Z,11.00
2018-06-23T02:05:49.985Z,11.00
2018-06-23T02:08:18.630Z,11.00
2018-06-23T02:10:47.253Z,11.00
2018-06-23T02:13:16.419Z,11.00
2018-06-23T02:15:50.247Z,11.00
2018-06-23T02:18:24.188Z,11.00
2018-06-23T02:20:57.960Z,11.00
2018-06-23T02:23:31.795Z,10.90
2018-06-23T02:26:05.671Z,10.90
2018-06-23T02:28:39.611Z,10.80
2018-06-23T02:31:13.776Z,10.80
2018-06-23T02:33:47.982Z,10.80
2018-06-23T02:36:16.831Z,10.80
2018-06-23T02:38:45.461Z,10.80
2018-06-23T02:41:14.330Z,10.70
2018-06-23T02:43:43.204Z,10.70
2018-06-23T02:46:12.776Z,10.70
2018-06-23T02:48:45.788Z,10.60
2018-06-23T02:51:14.653Z,10.60
2018-06-23T02:53:43.569Z,10.60
2018-06-23T02:56:12.200Z,10.50
2018-06-23T02:58:41.061Z,10.50
2018-06-23T03:01:09.699Z,10.50
2018-06-23T03:03:38.689Z,10.50
2018-06-23T03:06:07.332Z,10.40
2018-06-23T03:08:36.191Z,10.40
2018-06-23T03:11:05.187Z,10.50
2018-06-23T03:13:33.834Z,10.50
2018-06-23T03:16:02.460Z,10.40
2018-06-23T03:18:31.089Z,10.40
2018-06-23T03:20:59.930Z,10.50
2018-06-23T03:23:28.803Z,10.50
2018-06-23T03:25:57.920Z,10.50
2018-06-23T03:28:26.803Z,10.50
2018-06-23T03:30:55.645Z,10.60
2018-06-23T03:33:24.544Z,10.50
2018-06-23T03:35:53.473Z,10.50
2018-06-23T03:38:22.731Z,10.40
2018-06-23T03:40:51.392Z,10.50
2018-06-23T03:43:20.329Z,10.40
2018-06-23T03:45:49.595Z,10.40
2018-06-23T03:48:18.481Z,10.40
2018-06-23T03:50:47.342Z,10.40
2018-06-23T03:53:16.017Z,10.50
2018-06-23T03:55:44.902Z,10.50
2018-06-23T03:58:13.756Z,10.50
2018-06-23T04:00:47.841Z,10.40
2018-06-23T04:03:16.484Z,10.40
2018-06-23T04:05:47.033Z,10.30
2018-06-23T04:08:17.032Z,10.40
2018-06-23T04:10:45.657Z,10.40
2018-06-23T04:13:14.297Z,10.50
2018-06-23T04:15:42.967Z,10.50
2018-06-23T04:18:12.101Z,10.60
2018-06-23T04:20:40.961Z,10.50
2018-06-23T04:23:09.570Z,10.50
2018-06-23T04:25:38.214Z,10.50
2018-06-23T04:28:06.852Z,10.60
2018-06-23T04:30:35.728Z,10.60
2018-06-23T04:33:04.380Z,10.70
2018-06-23T04:35:33.080Z,10.70
2018-06-23T04:38:01.704Z,10.70
2018-06-23T04:40:30.839Z,10.60
2018-06-23T04:42:59.465Z,10.60
2018-06-23T04:45:28.325Z,10.50
2018-06-23T04:47:57.256Z,10.50
2018-06-23T04:50:25.889Z,10.50
2018-06-23T04:52:54.582Z,10.50
2018-06-23T04:57:51.525Z,10.40
2018-06-23T05:00:24.401Z,10.50
2018-06-23T05:02:53.516Z,10.60
2018-06-23T05:05:22.148Z,10.70
2018-06-23T05:07:50.791Z,10.50
2018-06-23T05:10:19.641Z,10.60
2018-06-23T05:12:48.260Z,10.70
2018-06-23T05:15:17.161Z,10.70
2018-06-23T05:17:46.053Z,10.70
2018-06-23T05:20:14.811Z,10.60
2018-06-23T05:22:44.236Z,10.70
2018-06-23T05:25:12.853Z,10.70
2018-06-23T05:27:42.612Z,10.60
2018-06-23T05:30:12.326Z,10.70
2018-06-23T05:32:41.230Z,10.50
2018-06-23T05:35:10.164Z,10.50
2018-06-23T05:37:39.549Z,10.50
2018-06-23T05:40:09.488Z,10.50
2018-06-23T05:42:39.418Z,10.50
2018-06-23T05:45:09.108Z,10.30
2018-06-23T05:47:39.008Z,10.40
2018-06-23T05:50:08.531Z,10.50
2018-06-23T05:52:38.409Z,10.70
2018-06-23T05:55:07.845Z,10.80
2018-06-23T05:57:36.480Z,11.10
2018-06-23T06:00:05.594Z,11.30
2018-06-23T06:02:34.491Z,11.40
2018-06-23T06:05:03.160Z,11.70
2018-06-23T06:07:31.814Z,12.30
2018-06-23T06:10:00.928Z,12.70
2018-06-23T06:12:29.918Z,13.10
2018-06-23T06:14:58.588Z,13.00
2018-06-23T06:17:42.035Z,13.30
2018-06-23T06:20:12.294Z,12.90
2018-06-23T06:22:43.346Z,13.70
2018-06-23T06:25:12.581Z,14.90
2018-06-23T06:27:41.216Z,14.90
2018-06-23T06:30:10.665Z,15.00
2018-06-23T06:32:39.296Z,15.30
2018-06-23T06:35:08.597Z,16.80
2018-06-23T06:37:37.216Z,16.60
2018-06-23T06:40:06.677Z,16.50
2018-06-23T06:42:35.503Z,16.80
2018-06-23T06:45:04.605Z,15.80
2018-06-23T06:47:33.225Z,15.80
2018-06-23T06:50:02.549Z,14.90
2018-06-23T06:52:31.191Z,14.60
2018-06-23T06:54:59.876Z,14.60
2018-06-23T06:57:28.544Z,14.40
2018-06-23T06:59:57.224Z,14.20
2018-06-23T07:02:26.159Z,14.10
2018-06-23T07:04:54.755Z,14.50
2018-06-23T07:07:23.352Z,14.60
2018-06-23T07:09:52.552Z,14.40
2018-06-23T07:12:21.179Z,14.20
2018-06-23T07:14:50.889Z,14.20
2018-06-23T07:17:20.018Z,14.60
2018-06-23T07:19:51.261Z,15.30
2018-06-23T07:22:20.287Z,16.40
2018-06-23T07:24:49.955Z,15.80
2018-06-23T07:27:19.706Z,15.30
2018-06-23T07:29:49.139Z,15.20
2018-06-23T07:32:18.439Z,15.30
2018-06-23T07:34:47.975Z,15.30
2018-06-23T07:37:17.408Z,15.10
2018-06-23T07:39:46.183Z,14.80
2018-06-23T07:42:16.012Z,14.50
2018-06-23T07:44:44.700Z,14.20
2018-06-23T07:47:13.531Z,14.30
2018-06-23T07:49:42.371Z,14.30
2018-06-23T07:52:11.002Z,14.20
2018-06-23T07:54:39.893Z,13.80
2018-06-23T07:57:09.165Z,13.40
2018-06-23T07:59:38.128Z,13.40
2018-06-23T08:02:07.237Z,13.50
2018-06-23T08:04:36.215Z,13.50
2018-06-23T08:07:04.912Z,13.50
2018-06-23T08:09:33.837Z,13.30
2018-06-23T08:12:02.478Z,13.60
2018-06-23T08:14:31.112Z,13.30
2018-06-23T08:16:59.731Z,13.20
2018-06-23T08:21:57.436Z,13.20
2018-06-23T08:24:26.040Z,13.50
2018-06-23T08:26:54.766Z,13.50
2018-06-23T08:29:24.118Z,13.70
2018-06-23T08:31:52.973Z,13.80
2018-06-23T08:34:21.623Z,14.10
2018-06-23T08:36:50.293Z,13.70
2018-06-23T08:39:18.932Z,13.50
2018-06-23T08:41:47.569Z,13.70
2018-06-23T08:44:16.428Z,13.60
2018-06-23T08:46:45.037Z,13.50
2018-06-23T08:49:14.215Z,13.90
2018-06-23T08:51:42.889Z,14.40
2018-06-23T08:54:11.795Z,14.80
2018-06-23T08:56:40.993Z,15.60
2018-06-23T08:59:09.865Z,16.30
2018-06-23T09:01:38.505Z,15.70
2018-06-23T09:04:07.512Z,15.40
2018-06-23T09:06:36.128Z,15.60
2018-06-23T09:09:07.614Z,15.70
2018-06-23T09:11:36.275Z,15.70
2018-06-23T09:14:04.936Z,15.50
2018-06-23T09:16:33.809Z,15.70
2018-06-23T09:19:02.734Z,15.90
2018-06-23T09:21:31.924Z,15.80
2018-06-23T09:24:04.885Z,15.60
2018-06-23T09:26:34.324Z,15.50
2018-06-23T09:29:03.328Z,15.60
2018-06-23T09:31:32.009Z,15.30
2018-06-23T09:34:00.645Z,15.00
2018-06-23T09:36:29.535Z,14.80
2018-06-23T09:38:58.212Z,14.80
2018-06-23T09:41:26.961Z,14.50
2018-06-23T09:43:55.573Z,14.20
2018-06-23T09:46:24.500Z,14.00
2018-06-23T09:48:53.360Z,14.00
2018-06-23T09:51:21.993Z,14.10
2018-06-23T10:03:00.275Z,13.50
2018-06-23T10:05:30.265Z,13.50
2018-06-23T10:08:00.242Z,13.70
2018-06-23T10:10:29.999Z,14.00
2018-06-23T10:12:59.623Z,14.70
2018-06-23T10:15:29.027Z,15.00
2018-06-23T10:17:58.957Z,15.00
2018-06-23T10:20:28.627Z,15.00
2018-06-23T10:22:57.773Z,15.80
2018-06-23T10:25:27.055Z,16.70
2018-06-23T10:27:56.272Z,16.80
2018-06-23T10:30:25.230Z,18.10
2018-06-23T10:32:54.237Z,19.40
2018-06-23T10:35:27.970Z,20.00
2018-06-23T10:37:56.638Z,19.90
2018-06-23T10:40:25.896Z,18.80
2018-06-23T10:42:55.028Z,18.20
2018-06-23T10:45:24.220Z,17.20
2018-06-23T10:47:53.248Z,16.50
2018-06-23T10:50:27.143Z,15.80
2018-06-23T10:52:56.100Z,15.40
2018-06-23T10:55:24.902Z,15.10
2018-06-23T10:57:54.834Z,15.00
2018-06-23T11:00:26.077Z,14.90
2018-06-23T11:02:55.580Z,14.70
2018-06-23T11:05:25.883Z,14.70
2018-06-23T11:07:55.782Z,14.60
2018-06-23T11:10:24.742Z,14.70
2018-06-23T11:12:56.659Z,15.20
2018-06-23T11:15:25.825Z,16.00
2018-06-23T11:17:54.570Z,16.80
2018-06-23T11:20:23.691Z,18.20
2018-06-23T11:22:53.551Z,18.90
2018-06-23T11:25:22.604Z,19.40
2018-06-23T11:27:51.104Z,19.50
2018-06-23T11:30:19.689Z,17.90
2018-06-23T11:35:41.089Z,16.90
2018-06-23T11:38:09.680Z,17.10
2018-06-23T11:40:38.445Z,16.80
2018-06-23T11:43:06.911Z,16.70
2018-06-23T11:45:35.470Z,16.50
2018-06-23T11:48:05.207Z,16.30
2018-06-23T11:50:33.667Z,16.20
2018-06-23T11:53:02.210Z,15.70
2018-06-23T11:55:31.758Z,15.40
2018-06-23T11:58:01.951Z,15.20
2018-06-23T12:00:30.733Z,15.10
2018-06-23T12:03:01.883Z,15.10
2018-06-23T12:05:37.254Z,15.20
2018-06-23T12:08:06.821Z,15.10
2018-06-23T12:10:35.410Z,15.30
2018-06-23T12:15:33.215Z,16.20
2018-06-23T12:18:02.651Z,16.80
2018-06-23T12:23:07.566Z,18.20
2018-06-23T12:25:37.445Z,18.20
2018-06-23T12:28:07.145Z,18.10
2018-06-23T12:30:37.334Z,18.10
2018-06-23T12:33:09.762Z,17.90
2018-06-23T12:35:38.718Z,17.50
2018-06-23T12:38:07.651Z,17.50
2018-06-23T12:40:40.838Z,17.60
2018-06-23T12:43:10.341Z,17.20
2018-06-23T12:45:40.289Z,17.20
2018-06-23T12:48:08.873Z,17.60
2018-06-23T12:50:38.883Z,17.50
2018-06-23T12:53:07.730Z,17.80
2018-06-23T12:55:36.213Z,18.10
2018-06-23T12:58:04.685Z,18.10
2018-06-23T13:00:34.472Z,18.40
2018-06-23T13:03:03.827Z,18.30
2018-06-23T13:05:33.543Z,18.60
2018-06-23T13:08:03.672Z,18.80
2018-06-23T13:10:32.467Z,19.00
2018-06-23T13:13:02.442Z,19.00
2018-06-23T13:15:32.156Z,19.10
2018-06-23T13:18:01.276Z,19.20
2018-06-23T13:20:31.018Z,18.90
2018-06-23T13:23:01.478Z,18.30
2018-06-23T13:25:31.305Z,18.40
2018-06-23T13:27:59.825Z,18.40
2018-06-23T13:30:28.714Z,17.60
2018-06-23T13:32:57.774Z,17.20
2018-06-23T13:35:30.440Z,17.30
2018-06-23T13:38:02.774Z,17.20
2018-06-23T13:40:31.287Z,17.10
2018-06-23T13:43:00.467Z,16.70
2018-06-23T13:45:29.645Z,16.80
2018-06-23T13:48:00.937Z,17.20
2018-06-23T13:50:33.643Z,17.40
2018-06-23T13:53:02.226Z,17.70
2018-06-23T13:55:30.739Z,17.90
2018-06-23T13:57:59.237Z,17.90
2018-06-23T14:00:30.618Z,17.70
2018-06-23T14:02:59.386Z,17.80
2018-06-23T14:05:28.963Z,18.10
2018-06-23T14:07:57.934Z,18.10
2018-06-23T14:10:28.693Z,17.60
2018-06-23T14:12:57.369Z,17.50
2018-06-23T14:15:26.721Z,17.50
2018-06-23T14:17:55.782Z,17.50
2018-06-23T14:20:24.214Z,17.50
2018-06-23T14:22:52.669Z,17.50
2018-06-23T14:25:21.117Z,17.90
2018-06-23T14:27:49.546Z,18.30
2018-06-23T14:30:18.081Z,18.10
2018-06-23T14:32:46.546Z,18.50
2018-06-23T14:35:15.029Z,18.80
2018-06-23T14:37:43.453Z,18.90
2018-06-23T14:40:12.720Z,19.00
2018-06-23T14:42:41.204Z,19.20
2018-06-23T14:45:09.670Z,19.10
2018-06-23T14:47:38.181Z,18.60
2018-06-23T14:50:06.675Z,18.00
2018-06-23T14:52:35.177Z,18.00
2018-06-23T14:55:03.734Z,18.40
2018-06-23T14:57:32.193Z,19.00
2018-06-23T15:00:00.657Z,18.90
2018-06-23T15:02:29.119Z,18.30
2018-06-23T15:05:00.781Z,18.20
2018-06-23T15:07:29.330Z,17.80
2018-06-23T15:10:09.241Z,17.70
2018-06-23T15:12:49.493Z,17.40
2018-06-23T15:15:19.001Z,17.30
2018-06-23T15:17:49.149Z,16.90
2018-06-23T15:20:19.588Z,16.90
2018-06-23T15:22:48.325Z,16.70
2018-06-23T15:25:21.708Z,16.70
2018-06-23T15:27:51.057Z,16.60
2018-06-23T15:30:19.602Z,16.60
2018-06-23T15:32:48.354Z,16.70
2018-06-23T15:35:23.054Z,17.00
2018-06-23T15:37:51.708Z,17.40
2018-06-23T15:40:20.178Z,17.50
2018-06-23T15:42:48.873Z,17.00
2018-06-23T15:47:47.647Z,16.60
2018-06-23T15:50:18.995Z,16.50
2018-06-23T15:52:49.591Z,16.60
2018-06-23T15:55:26.320Z,16.50
2018-06-23T15:57:55.395Z,16.40
2018-06-23T16:00:24.599Z,16.30
2018-06-23T16:02:54.060Z,16.20
2018-06-23T16:05:24.876Z,16.20
2018-06-23T16:07:54.904Z,16.30
2018-06-23T16:10:25.666Z,16.60
2018-06-23T16:12:56.315Z,16.60
2018-06-23T16:15:25.654Z,16.70
2018-06-23T16:17:54.534Z,16.90
2018-06-23T16:20:27.119Z,16.90
2018-06-23T16:22:55.656Z,17.00
2018-06-23T16:25:24.150Z,17.20
2018-06-23T16:27:52.630Z,17.20
2018-06-23T16:30:21.077Z,16.90
2018-06-23T16:35:17.842Z,16.60
2018-06-23T16:37:46.147Z,16.60
2018-06-23T16:40:14.609Z,16.60
2018-06-23T16:42:43.085Z,16.50
2018-06-23T16:45:11.526Z,16.40
2018-06-23T16:47:40.055Z,16.30
2018-06-23T16:50:08.637Z,16.20
2018-06-23T16:52:37.158Z,16.20
2018-06-23T16:55:05.759Z,16.20
2018-06-23T16:57:34.256Z,16.20
2018-06-23T17:00:02.879Z,16.20
2018-06-23T17:02:31.385Z,15.90
2018-06-23T17:05:00.046Z,15.80
2018-06-23T17:07:28.515Z,15.90
2018-06-23T17:09:57.026Z,15.80
2018-06-23T17:12:25.539Z,15.90
2018-06-23T17:14:54.094Z,15.90
2018-06-23T17:17:23.806Z,15.90
2018-06-23T17:19:52.340Z,15.90
2018-06-23T17:22:20.854Z,15.90
2018-06-23T17:24:49.421Z,15.90
2018-06-23T17:27:17.929Z,15.80
2018-06-23T17:29:47.164Z,15.90
2018-06-23T17:32:15.797Z,16.00
2018-06-23T17:34:44.384Z,16.10
2018-06-23T17:37:13.767Z,16.00
2018-06-23T17:39:42.245Z,16.00
2018-06-23T17:42:10.793Z,16.00
2018-06-23T17:44:39.369Z,15.90
2018-06-23T17:47:07.899Z,15.90
2018-06-23T17:49:36.441Z,16.00
2018-06-23T17:52:05.011Z,16.00
2018-06-23T17:54:33.563Z,16.00
2018-06-23T17:57:03.137Z,15.90
2018-06-23T17:59:31.729Z,15.90
2018-06-23T18:02:00.461Z,15.80
2018-06-23T18:04:30.604Z,15.70
2018-06-23T18:06:59.210Z,15.70
2018-06-23T18:09:27.673Z,15.70
2018-06-23T18:11:56.123Z,15.70
2018-06-23T18:14:27.359Z,15.60
2018-06-23T18:17:03.454Z,15.60
2018-06-23T18:19:32.698Z,15.50
2018-06-23T18:22:01.289Z,15.50
2018-06-23T18:24:29.801Z,15.50
2018-06-23T18:26:58.255Z,15.50
2018-06-23T18:29:26.695Z,15.50
2018-06-23T18:31:55.180Z,15.50
2018-06-23T18:34:23.644Z,15.50
2018-06-23T18:36:52.098Z,15.50
2018-06-23T18:39:20.568Z,15.60
2018-06-23T18:41:49.052Z,15.70
2018-06-23T18:44:17.513Z,15.70
2018-06-23T18:46:46.040Z,15.70
2018-06-23T18:49:14.577Z,15.70
2018-06-23T18:51:43.081Z,15.70
2018-06-23T18:54:11.535Z,15.70
2018-06-23T18:56:40.047Z,15.70
2018-06-23T18:59:08.641Z,15.70
2018-06-23T19:09:03.710Z,15.70
2018-06-23T19:11:32.140Z,15.70
2018-06-23T19:16:29.317Z,15.50
2018-06-23T19:18:57.814Z,15.40
2018-06-23T19:21:26.343Z,15.30
2018-06-23T19:23:54.797Z,15.20
2018-06-23T19:29:14.862Z,15.00
2018-06-23T19:31:44.218Z,14.70
2018-06-23T19:34:12.657Z,14.60
2018-06-23T19:36:41.336Z,14.40
2018-06-23T19:39:10.874Z,14.30
2018-06-23T19:41:39.321Z,14.00
2018-06-23T19:44:07.833Z,13.90
2018-06-23T19:46:36.285Z,13.70
2018-06-23T19:49:04.762Z,13.60
2018-06-23T19:51:33.223Z,13.40
2018-06-23T19:54:01.726Z,13.20
2018-06-23T19:56:30.232Z,13.10
2018-06-23T19:58:58.748Z,12.80
2018-06-23T20:01:27.182Z,12.70
2018-06-23T20:04:02.231Z,12.60
2018-06-23T20:06:30.710Z,12.60
2018-06-23T20:08:59.247Z,12.50
2018-06-23T20:11:27.729Z,12.40
2018-06-23T20:13:56.186Z,12.30
2018-06-23T20:16:24.643Z,12.10
2018-06-23T20:18:53.106Z,12.00
2018-06-23T20:21:21.573Z,11.80
2018-06-23T20:23:50.038Z,11.70
2018-06-23T20:26:18.515Z,11.60
2018-06-23T20:28:46.958Z,11.50
2018-06-23T20:31:15.428Z,11.40
2018-06-23T20:33:43.902Z,11.30
2018-06-23T20:36:12.362Z,11.20
2018-06-23T20:38:40.902Z,11.20
2018-06-23T20:41:10.512Z,11.10
2018-06-23T20:43:38.991Z,11.00
2018-06-23T20:46:09.307Z,10.80
2018-06-23T20:48:37.911Z,10.80
2018-06-23T20:51:06.434Z,10.80
2018-06-23T20:53:34.915Z,10.80
2018-06-23T20:56:03.770Z,10.70
2018-06-23T20:58:32.690Z,10.60
2018-06-23T21:01:01.611Z,10.60
2018-06-23T21:03:30.197Z,10.60
2018-06-23T21:05:59.299Z,10.60
2018-06-23T21:08:27.891Z,10.50
2018-06-23T21:10:56.403Z,10.50
2018-06-23T21:13:24.987Z,10.50
2018-06-23T21:15:53.431Z,10.60
2018-06-23T21:18:21.955Z,10.60
2018-06-23T21:20:50.506Z,10.60
2018-06-23T21:23:18.990Z,10.70
2018-06-23T21:25:47.530Z,10.70
2018-06-23T21:28:16.042Z,10.70
2018-06-23T21:30:44.768Z,10.80
2018-06-23T21:33:13.217Z,10.80
2018-06-23T21:35:41.646Z,10.80
2018-06-23T21:38:10.126Z,10.90
2018-06-23T21:40:38.589Z,10.80
2018-06-23T21:43:07.690Z,10.90
2018-06-23T21:45:36.541Z,10.90
2018-06-23T21:48:05.046Z,11.00
2018-06-23T21:50:33.543Z,11.10
2018-06-23T21:53:02.057Z,11.00
2018-06-23T21:55:30.601Z,11.10
2018-06-23T21:57:59.242Z,11.10
2018-06-23T22:00:34.041Z,11.10
2018-06-23T22:05:35.145Z,11.10
2018-06-23T22:08:03.804Z,11.10
2018-06-23T22:10:32.294Z,11.00
2018-06-23T22:13:01.272Z,11.00
2018-06-23T22:15:29.946Z,11.10
2018-06-23T22:17:58.576Z,11.00
2018-06-23T22:20:27.101Z,11.00
2018-06-23T22:22:55.609Z,10.90
2018-06-23T22:25:24.221Z,10.90
2018-06-23T22:27:52.793Z,10.90
2018-06-23T22:30:22.049Z,10.90
2018-06-23T22:32:51.715Z,10.80
2018-06-23T22:35:21.806Z,10.80
2018-06-23T22:37:52.072Z,10.80
2018-06-23T22:40:20.670Z,10.70
2018-06-23T22:42:49.697Z,10.70
2018-06-23T22:45:18.343Z,10.60
2018-06-23T22:47:47.345Z,10.60
2018-06-23T22:50:15.807Z,10.50
2018-06-23T22:52:45.103Z,10.50
2018-06-23T22:55:13.694Z,10.50
2018-06-23T22:57:42.239Z,10.50
2018-06-23T23:00:12.708Z,10.40
2018-06-23T23:05:09.982Z,10.30
2018-06-23T23:07:38.810Z,10.20
2018-06-23T23:10:08.400Z,10.20
2018-06-23T23:12:36.991Z,10.20
2018-06-23T23:15:05.714Z,10.20
2018-06-23T23:17:34.153Z,10.20
2018-06-23T23:20:02.713Z,10.10
2018-06-23T23:22:31.499Z,10.10
2018-06-23T23:25:00.055Z,10.10
2018-06-23T23:27:28.553Z,10.10
2018-06-23T23:29:57.021Z,10.10
2018-06-23T23:32:25.813Z,10.10
2018-06-23T23:34:55.315Z,10.10
2018-06-23T23:37:23.897Z,10.10
2018-06-23T23:39:52.398Z,10.10
2018-06-23T23:42:20.890Z,10.10
2018-06-23T23:44:49.517Z,10.10
2018-06-23T23:47:18.023Z,10.20
2018-06-23T23:49:46.549Z,10.30
2018-06-23T23:52:15.505Z,10.30
2018-06-23T23:54:44.011Z,10.40
2018-06-23T23:57:12.494Z,10.40
2018-06-23T23:59:42.182Z,10.30
